sensor_id;sensor_type;location;lat;lon;timestamp;P1;durP1;ratioP1;P2;durP2;ratioP2
71562;SDS011;59391;52.504;13.438;2023-08-12T00:01:39;12.10;;;6.83;;
71562;SDS011;59391;52.504;13.438;2023-08-12T00:04:05;11.85;;;7.32;;
71562;SDS011;59391;52.504;13.438;2023-08-12T00:06:31;11.98;;;8.43;;
71562;SDS011;59391;52.504;13.438;2023-08-12T00:08:57;10.13;;;7.33;;
71562;SDS011;59391;52.504;13.438;2023-08-12T00:11:22;8.83;;;7.00;;
71562;SDS011;59391;52.504;13.438;2023-08-12T00:13:48;10.63;;;7.63;;
71562;SDS011;59391;52.504;13.438;2023-08-12T00:16:13;9.07;;;7.50;;
71562;SDS011;59391;52.504;13.438;2023-08-12T00:18:39;8.95;;;7.57;;
71562;SDS011;59391;52.504;13.438;2023-08-12T00:21:07;9.67;;;7.50;;
71562;SDS011;59391;52.504;13.438;2023-08-12T00:23:37;16.52;;;12.38;;
71562;SDS011;59391;52.504;13.438;2023-08-12T00:26:05;11.75;;;8.05;;
71562;SDS011;59391;52.504;13.438;2023-08-12T00:28:33;11.60;;;8.32;;
71562;SDS011;59391;52.504;13.438;2023-08-12T00:30:59;11.40;;;7.70;;
71562;SDS011;59391;52.504;13.438;2023-08-12T00:33:25;9.88;;;7.55;;
71562;SDS011;59391;52.504;13.438;2023-08-12T00:35:50;11.30;;;7.40;;
71562;SDS011;59391;52.504;13.438;2023-08-12T00:38:16;9.20;;;7.10;;
71562;SDS011;59391;52.504;13.438;2023-08-12T00:40:42;8.30;;;6.70;;
71562;SDS011;59391;52.504;13.438;2023-08-12T00:43:09;10.20;;;8.00;;
71562;SDS011;59391;52.504;13.438;2023-08-12T00:45:35;9.70;;;6.87;;
71562;SDS011;59391;52.504;13.438;2023-08-12T00:48:01;12.55;;;7.60;;
71562;SDS011;59391;52.504;13.438;2023-08-12T00:50:28;10.00;;;7.40;;
71562;SDS011;59391;52.504;13.438;2023-08-12T00:52:55;9.95;;;6.85;;
71562;SDS011;59391;52.504;13.438;2023-08-12T00:55:21;10.43;;;7.60;;
71562;SDS011;59391;52.504;13.438;2023-08-12T00:57:47;9.15;;;7.03;;
71562;SDS011;59391;52.504;13.438;2023-08-12T01:00:13;9.95;;;7.55;;
71562;SDS011;59391;52.504;13.438;2023-08-12T01:02:41;9.35;;;7.13;;
71562;SDS011;59391;52.504;13.438;2023-08-12T01:05:13;10.00;;;7.30;;
71562;SDS011;59391;52.504;13.438;2023-08-12T01:07:40;9.18;;;7.20;;
71562;SDS011;59391;52.504;13.438;2023-08-12T01:10:07;8.73;;;7.43;;
71562;SDS011;59391;52.504;13.438;2023-08-12T01:15:38;8.65;;;7.03;;
71562;SDS011;59391;52.504;13.438;2023-08-12T01:18:05;10.07;;;6.67;;
71562;SDS011;59391;52.504;13.438;2023-08-12T01:20:32;10.35;;;7.65;;
71562;SDS011;59391;52.504;13.438;2023-08-12T01:23:09;10.23;;;7.88;;
71562;SDS011;59391;52.504;13.438;2023-08-12T01:25:38;10.55;;;6.88;;
71562;SDS011;59391;52.504;13.438;2023-08-12T01:28:04;8.47;;;6.60;;
71562;SDS011;59391;52.504;13.438;2023-08-12T01:30:30;11.37;;;7.77;;
71562;SDS011;59391;52.504;13.438;2023-08-12T01:33:00;10.93;;;7.53;;
71562;SDS011;59391;52.504;13.438;2023-08-12T01:35:36;12.20;;;7.60;;
71562;SDS011;59391;52.504;13.438;2023-08-12T01:38:08;11.00;;;8.07;;
71562;SDS011;59391;52.504;13.438;2023-08-12T01:40:35;10.00;;;7.63;;
71562;SDS011;59391;52.504;13.438;2023-08-12T01:43:03;9.00;;;7.77;;
71562;SDS011;59391;52.504;13.438;2023-08-12T01:45:30;11.30;;;8.70;;
71562;SDS011;59391;52.504;13.438;2023-08-12T01:47:57;9.00;;;7.40;;
71562;SDS011;59391;52.504;13.438;2023-08-12T01:50:22;9.83;;;7.80;;
71562;SDS011;59391;52.504;13.438;2023-08-12T01:52:49;10.63;;;7.93;;
71562;SDS011;59391;52.504;13.438;2023-08-12T01:55:14;9.95;;;7.28;;
71562;SDS011;59391;52.504;13.438;2023-08-12T01:57:40;8.40;;;6.87;;
71562;SDS011;59391;52.504;13.438;2023-08-12T02:00:06;9.05;;;7.10;;
71562;SDS011;59391;52.504;13.438;2023-08-12T02:02:32;8.65;;;7.13;;
71562;SDS011;59391;52.504;13.438;2023-08-12T02:04:58;9.97;;;7.43;;
71562;SDS011;59391;52.504;13.438;2023-08-12T02:07:23;9.03;;;6.70;;
71562;SDS011;59391;52.504;13.438;2023-08-12T02:09:49;10.38;;;7.40;;
71562;SDS011;59391;52.504;13.438;2023-08-12T02:12:15;9.23;;;6.87;;
71562;SDS011;59391;52.504;13.438;2023-08-12T02:14:40;8.03;;;7.13;;
71562;SDS011;59391;52.504;13.438;2023-08-12T02:17:06;8.83;;;7.33;;
71562;SDS011;59391;52.504;13.438;2023-08-12T02:19:32;9.93;;;7.50;;
71562;SDS011;59391;52.504;13.438;2023-08-12T02:21:59;9.40;;;7.25;;
71562;SDS011;59391;52.504;13.438;2023-08-12T02:24:26;10.25;;;7.47;;
71562;SDS011;59391;52.504;13.438;2023-08-12T02:26:52;9.87;;;7.37;;
71562;SDS011;59391;52.504;13.438;2023-08-12T02:29:18;8.75;;;7.05;;
71562;SDS011;59391;52.504;13.438;2023-08-12T02:31:44;10.40;;;7.80;;
71562;SDS011;59391;52.504;13.438;2023-08-12T02:34:09;11.13;;;7.93;;
71562;SDS011;59391;52.504;13.438;2023-08-12T02:36:35;10.27;;;7.53;;
71562;SDS011;59391;52.504;13.438;2023-08-12T02:39:01;8.95;;;6.82;;
71562;SDS011;59391;52.504;13.438;2023-08-12T02:41:27;10.50;;;7.55;;
71562;SDS011;59391;52.504;13.438;2023-08-12T02:43:52;9.53;;;7.70;;
71562;SDS011;59391;52.504;13.438;2023-08-12T02:46:18;9.83;;;7.70;;
71562;SDS011;59391;52.504;13.438;2023-08-12T02:48:44;10.18;;;7.53;;
71562;SDS011;59391;52.504;13.438;2023-08-12T02:51:12;9.20;;;7.40;;
71562;SDS011;59391;52.504;13.438;2023-08-12T02:53:38;10.02;;;7.90;;
71562;SDS011;59391;52.504;13.438;2023-08-12T02:56:04;11.70;;;7.88;;
71562;SDS011;59391;52.504;13.438;2023-08-12T02:58:29;9.00;;;7.20;;
71562;SDS011;59391;52.504;13.438;2023-08-12T03:00:55;8.75;;;7.30;;
71562;SDS011;59391;52.504;13.438;2023-08-12T03:03:21;12.57;;;7.90;;
71562;SDS011;59391;52.504;13.438;2023-08-12T03:05:47;10.80;;;7.20;;
71562;SDS011;59391;52.504;13.438;2023-08-12T03:08:14;9.85;;;7.30;;
71562;SDS011;59391;52.504;13.438;2023-08-12T03:10:40;9.43;;;7.50;;
71562;SDS011;59391;52.504;13.438;2023-08-12T03:13:07;11.25;;;7.78;;
71562;SDS011;59391;52.504;13.438;2023-08-12T03:15:33;9.93;;;7.57;;
71562;SDS011;59391;52.504;13.438;2023-08-12T03:17:58;8.40;;;6.93;;
71562;SDS011;59391;52.504;13.438;2023-08-12T03:20:24;9.40;;;7.38;;
71562;SDS011;59391;52.504;13.438;2023-08-12T03:22:50;8.57;;;7.43;;
71562;SDS011;59391;52.504;13.438;2023-08-12T03:25:15;9.98;;;7.65;;
71562;SDS011;59391;52.504;13.438;2023-08-12T03:27:41;10.13;;;7.97;;
71562;SDS011;59391;52.504;13.438;2023-08-12T03:30:07;10.80;;;7.80;;
71562;SDS011;59391;52.504;13.438;2023-08-12T03:32:34;10.40;;;9.27;;
71562;SDS011;59391;52.504;13.438;2023-08-12T03:35:00;9.97;;;7.50;;
71562;SDS011;59391;52.504;13.438;2023-08-12T03:37:25;9.13;;;7.37;;
71562;SDS011;59391;52.504;13.438;2023-08-12T03:39:51;9.25;;;7.57;;
71562;SDS011;59391;52.504;13.438;2023-08-12T03:42:17;9.57;;;7.95;;
71562;SDS011;59391;52.504;13.438;2023-08-12T03:44:43;9.70;;;7.53;;
71562;SDS011;59391;52.504;13.438;2023-08-12T03:47:09;10.05;;;7.20;;
71562;SDS011;59391;52.504;13.438;2023-08-12T03:49:35;8.55;;;7.50;;
71562;SDS011;59391;52.504;13.438;2023-08-12T03:52:01;8.77;;;7.32;;
71562;SDS011;59391;52.504;13.438;2023-08-12T03:54:28;9.63;;;7.72;;
71562;SDS011;59391;52.504;13.438;2023-08-12T03:56:53;8.63;;;7.50;;
71562;SDS011;59391;52.504;13.438;2023-08-12T03:59:19;9.43;;;7.77;;
71562;SDS011;59391;52.504;13.438;2023-08-12T04:01:45;10.35;;;7.78;;
71562;SDS011;59391;52.504;13.438;2023-08-12T04:04:10;8.97;;;7.90;;
71562;SDS011;59391;52.504;13.438;2023-08-12T04:06:36;10.05;;;7.88;;
71562;SDS011;59391;52.504;13.438;2023-08-12T04:09:02;9.98;;;7.63;;
71562;SDS011;59391;52.504;13.438;2023-08-12T04:11:29;10.10;;;7.78;;
71562;SDS011;59391;52.504;13.438;2023-08-12T04:13:54;10.85;;;8.27;;
71562;SDS011;59391;52.504;13.438;2023-08-12T04:16:20;10.03;;;7.87;;
71562;SDS011;59391;52.504;13.438;2023-08-12T04:18:46;9.85;;;7.38;;
71562;SDS011;59391;52.504;13.438;2023-08-12T04:21:13;11.63;;;7.45;;
71562;SDS011;59391;52.504;13.438;2023-08-12T04:23:38;8.70;;;6.90;;
71562;SDS011;59391;52.504;13.438;2023-08-12T04:26:04;10.13;;;7.45;;
71562;SDS011;59391;52.504;13.438;2023-08-12T04:28:30;8.70;;;7.27;;
71562;SDS011;59391;52.504;13.438;2023-08-12T04:30:55;10.02;;;7.35;;
71562;SDS011;59391;52.504;13.438;2023-08-12T04:33:21;9.73;;;7.63;;
71562;SDS011;59391;52.504;13.438;2023-08-12T04:35:47;10.32;;;7.35;;
71562;SDS011;59391;52.504;13.438;2023-08-12T04:38:13;8.43;;;7.50;;
71562;SDS011;59391;52.504;13.438;2023-08-12T04:40:39;8.32;;;7.30;;
71562;SDS011;59391;52.504;13.438;2023-08-12T04:43:07;8.98;;;7.38;;
71562;SDS011;59391;52.504;13.438;2023-08-12T04:45:34;10.17;;;7.20;;
71562;SDS011;59391;52.504;13.438;2023-08-12T04:48:00;10.20;;;7.32;;
71562;SDS011;59391;52.504;13.438;2023-08-12T04:50:25;9.23;;;7.37;;
71562;SDS011;59391;52.504;13.438;2023-08-12T04:52:55;9.68;;;7.88;;
71562;SDS011;59391;52.504;13.438;2023-08-12T04:55:20;9.30;;;7.67;;
71562;SDS011;59391;52.504;13.438;2023-08-12T04:57:46;9.30;;;6.88;;
71562;SDS011;59391;52.504;13.438;2023-08-12T05:00:12;9.33;;;6.60;;
71562;SDS011;59391;52.504;13.438;2023-08-12T05:02:38;8.60;;;6.97;;
71562;SDS011;59391;52.504;13.438;2023-08-12T05:05:04;8.60;;;7.60;;
71562;SDS011;59391;52.504;13.438;2023-08-12T05:07:30;9.95;;;7.43;;
71562;SDS011;59391;52.504;13.438;2023-08-12T05:09:56;10.10;;;7.40;;
71562;SDS011;59391;52.504;13.438;2023-08-12T05:12:22;7.65;;;6.63;;
71562;SDS011;59391;52.504;13.438;2023-08-12T05:14:47;8.80;;;7.27;;
71562;SDS011;59391;52.504;13.438;2023-08-12T05:17:13;10.05;;;7.68;;
71562;SDS011;59391;52.504;13.438;2023-08-12T05:19:38;10.87;;;7.10;;
71562;SDS011;59391;52.504;13.438;2023-08-12T05:22:04;9.45;;;7.90;;
71562;SDS011;59391;52.504;13.438;2023-08-12T05:24:30;9.27;;;7.33;;
71562;SDS011;59391;52.504;13.438;2023-08-12T05:26:55;7.77;;;6.83;;
71562;SDS011;59391;52.504;13.438;2023-08-12T05:29:21;9.68;;;6.97;;
71562;SDS011;59391;52.504;13.438;2023-08-12T05:31:47;10.53;;;7.20;;
71562;SDS011;59391;52.504;13.438;2023-08-12T05:34:12;8.73;;;6.55;;
71562;SDS011;59391;52.504;13.438;2023-08-12T05:36:38;9.40;;;7.03;;
71562;SDS011;59391;52.504;13.438;2023-08-12T05:39:03;8.00;;;6.80;;
71562;SDS011;59391;52.504;13.438;2023-08-12T05:41:29;8.57;;;6.90;;
71562;SDS011;59391;52.504;13.438;2023-08-12T05:43:55;10.80;;;7.27;;
71562;SDS011;59391;52.504;13.438;2023-08-12T05:46:20;8.77;;;6.43;;
71562;SDS011;59391;52.504;13.438;2023-08-12T05:48:46;8.80;;;6.83;;
71562;SDS011;59391;52.504;13.438;2023-08-12T05:51:12;9.40;;;6.72;;
71562;SDS011;59391;52.504;13.438;2023-08-12T05:53:37;7.80;;;6.07;;
71562;SDS011;59391;52.504;13.438;2023-08-12T05:56:04;8.65;;;6.68;;
71562;SDS011;59391;52.504;13.438;2023-08-12T05:58:30;10.57;;;6.53;;
71562;SDS011;59391;52.504;13.438;2023-08-12T06:00:55;8.53;;;6.33;;
71562;SDS011;59391;52.504;13.438;2023-08-12T06:03:21;9.05;;;5.82;;
71562;SDS011;59391;52.504;13.438;2023-08-12T06:05:47;8.20;;;6.80;;
71562;SDS011;59391;52.504;13.438;2023-08-12T06:08:13;9.55;;;6.03;;
71562;SDS011;59391;52.504;13.438;2023-08-12T06:10:39;7.55;;;5.80;;
71562;SDS011;59391;52.504;13.438;2023-08-12T06:13:05;7.10;;;6.00;;
71562;SDS011;59391;52.504;13.438;2023-08-12T06:15:31;7.95;;;6.35;;
71562;SDS011;59391;52.504;13.438;2023-08-12T06:18:01;7.38;;;5.90;;
71562;SDS011;59391;52.504;13.438;2023-08-12T06:20:27;7.65;;;5.93;;
71562;SDS011;59391;52.504;13.438;2023-08-12T06:22:53;7.43;;;5.93;;
71562;SDS011;59391;52.504;13.438;2023-08-12T06:25:19;9.15;;;6.10;;
71562;SDS011;59391;52.504;13.438;2023-08-12T06:27:45;7.33;;;6.07;;
71562;SDS011;59391;52.504;13.438;2023-08-12T06:30:12;10.27;;;6.27;;
71562;SDS011;59391;52.504;13.438;2023-08-12T06:32:39;8.02;;;6.10;;
71562;SDS011;59391;52.504;13.438;2023-08-12T06:35:05;10.75;;;6.53;;
71562;SDS011;59391;52.504;13.438;2023-08-12T06:37:31;7.32;;;5.82;;
71562;SDS011;59391;52.504;13.438;2023-08-12T06:40:03;7.68;;;6.07;;
71562;SDS011;59391;52.504;13.438;2023-08-12T06:42:29;8.30;;;5.77;;
71562;SDS011;59391;52.504;13.438;2023-08-12T06:44:56;7.65;;;5.70;;
71562;SDS011;59391;52.504;13.438;2023-08-12T06:47:23;8.32;;;5.70;;
71562;SDS011;59391;52.504;13.438;2023-08-12T06:49:48;8.63;;;6.10;;
71562;SDS011;59391;52.504;13.438;2023-08-12T06:52:14;11.13;;;6.30;;
71562;SDS011;59391;52.504;13.438;2023-08-12T06:54:41;10.70;;;6.00;;
71562;SDS011;59391;52.504;13.438;2023-08-12T06:57:07;8.25;;;5.90;;
71562;SDS011;59391;52.504;13.438;2023-08-12T06:59:32;8.90;;;5.77;;
71562;SDS011;59391;52.504;13.438;2023-08-12T07:01:58;7.10;;;5.93;;
71562;SDS011;59391;52.504;13.438;2023-08-12T07:04:24;7.70;;;6.40;;
71562;SDS011;59391;52.504;13.438;2023-08-12T07:06:50;9.20;;;6.22;;
71562;SDS011;59391;52.504;13.438;2023-08-12T07:09:15;8.87;;;6.60;;
71562;SDS011;59391;52.504;13.438;2023-08-12T07:11:41;7.83;;;6.60;;
71562;SDS011;59391;52.504;13.438;2023-08-12T07:14:07;8.73;;;6.30;;
71562;SDS011;59391;52.504;13.438;2023-08-12T07:16:33;10.63;;;6.40;;
71562;SDS011;59391;52.504;13.438;2023-08-12T07:18:58;7.90;;;6.32;;
71562;SDS011;59391;52.504;13.438;2023-08-12T07:21:24;8.03;;;6.43;;
71562;SDS011;59391;52.504;13.438;2023-08-12T07:23:49;8.10;;;6.53;;
71562;SDS011;59391;52.504;13.438;2023-08-12T07:26:15;12.57;;;6.60;;
71562;SDS011;59391;52.504;13.438;2023-08-12T07:28:41;9.60;;;6.80;;
71562;SDS011;59391;52.504;13.438;2023-08-12T07:31:07;8.13;;;6.50;;
71562;SDS011;59391;52.504;13.438;2023-08-12T07:33:33;8.50;;;6.57;;
71562;SDS011;59391;52.504;13.438;2023-08-12T07:35:59;7.80;;;6.43;;
71562;SDS011;59391;52.504;13.438;2023-08-12T07:38:25;8.88;;;6.40;;
71562;SDS011;59391;52.504;13.438;2023-08-12T07:40:50;9.93;;;6.10;;
71562;SDS011;59391;52.504;13.438;2023-08-12T07:43:16;7.43;;;5.97;;
71562;SDS011;59391;52.504;13.438;2023-08-12T07:45:41;7.50;;;5.70;;
71562;SDS011;59391;52.504;13.438;2023-08-12T07:48:07;9.43;;;6.20;;
71562;SDS011;59391;52.504;13.438;2023-08-12T07:50:33;8.30;;;6.45;;
71562;SDS011;59391;52.504;13.438;2023-08-12T07:52:59;9.63;;;6.30;;
71562;SDS011;59391;52.504;13.438;2023-08-12T07:55:25;8.07;;;6.17;;
71562;SDS011;59391;52.504;13.438;2023-08-12T07:57:51;7.30;;;6.10;;
71562;SDS011;59391;52.504;13.438;2023-08-12T08:00:17;9.20;;;6.20;;
71562;SDS011;59391;52.504;13.438;2023-08-12T08:02:43;9.02;;;6.00;;
71562;SDS011;59391;52.504;13.438;2023-08-12T08:05:09;7.73;;;5.93;;
71562;SDS011;59391;52.504;13.438;2023-08-12T08:07:34;8.07;;;6.07;;
71562;SDS011;59391;52.504;13.438;2023-08-12T08:10:00;8.60;;;6.63;;
71562;SDS011;59391;52.504;13.438;2023-08-12T08:12:25;7.43;;;6.18;;
71562;SDS011;59391;52.504;13.438;2023-08-12T08:14:51;8.37;;;5.80;;
71562;SDS011;59391;52.504;13.438;2023-08-12T08:17:17;7.35;;;6.03;;
71562;SDS011;59391;52.504;13.438;2023-08-12T08:19:42;8.57;;;6.10;;
71562;SDS011;59391;52.504;13.438;2023-08-12T08:22:08;9.00;;;6.17;;
71562;SDS011;59391;52.504;13.438;2023-08-12T08:24:34;8.57;;;5.95;;
71562;SDS011;59391;52.504;13.438;2023-08-12T08:26:59;9.03;;;5.80;;
71562;SDS011;59391;52.504;13.438;2023-08-12T08:29:25;9.88;;;6.05;;
71562;SDS011;59391;52.504;13.438;2023-08-12T08:31:51;7.80;;;6.20;;
71562;SDS011;59391;52.504;13.438;2023-08-12T08:34:16;8.43;;;6.15;;
71562;SDS011;59391;52.504;13.438;2023-08-12T08:36:42;8.20;;;6.30;;
71562;SDS011;59391;52.504;13.438;2023-08-12T08:39:08;8.15;;;6.10;;
71562;SDS011;59391;52.504;13.438;2023-08-12T08:41:35;9.53;;;6.50;;
71562;SDS011;59391;52.504;13.438;2023-08-12T08:44:07;9.48;;;6.43;;
71562;SDS011;59391;52.504;13.438;2023-08-12T08:46:33;8.60;;;6.32;;
71562;SDS011;59391;52.504;13.438;2023-08-12T08:49:00;8.73;;;6.57;;
71562;SDS011;59391;52.504;13.438;2023-08-12T08:51:25;8.15;;;6.25;;
71562;SDS011;59391;52.504;13.438;2023-08-12T08:53:57;10.27;;;6.70;;
71562;SDS011;59391;52.504;13.438;2023-08-12T08:56:24;7.57;;;6.40;;
71562;SDS011;59391;52.504;13.438;2023-08-12T08:58:57;9.80;;;7.27;;
71562;SDS011;59391;52.504;13.438;2023-08-12T09:01:26;9.77;;;7.15;;
71562;SDS011;59391;52.504;13.438;2023-08-12T09:03:54;12.40;;;6.55;;
71562;SDS011;59391;52.504;13.438;2023-08-12T09:06:21;8.95;;;7.18;;
71562;SDS011;59391;52.504;13.438;2023-08-12T09:08:51;9.87;;;8.57;;
71562;SDS011;59391;52.504;13.438;2023-08-12T09:11:18;11.20;;;8.88;;
71562;SDS011;59391;52.504;13.438;2023-08-12T09:13:44;10.32;;;7.00;;
71562;SDS011;59391;52.504;13.438;2023-08-12T09:16:10;10.43;;;6.63;;
71562;SDS011;59391;52.504;13.438;2023-08-12T09:18:37;9.73;;;6.95;;
71562;SDS011;59391;52.504;13.438;2023-08-12T09:21:03;9.33;;;6.73;;
71562;SDS011;59391;52.504;13.438;2023-08-12T09:23:39;10.77;;;7.10;;
71562;SDS011;59391;52.504;13.438;2023-08-12T09:26:13;9.52;;;6.80;;
71562;SDS011;59391;52.504;13.438;2023-08-12T09:28:47;9.02;;;6.32;;
71562;SDS011;59391;52.504;13.438;2023-08-12T09:31:21;7.90;;;6.63;;
71562;SDS011;59391;52.504;13.438;2023-08-12T09:33:53;10.37;;;6.20;;
71562;SDS011;59391;52.504;13.438;2023-08-12T09:36:28;8.57;;;6.35;;
71562;SDS011;59391;52.504;13.438;2023-08-12T09:38:55;7.68;;;6.05;;
71562;SDS011;59391;52.504;13.438;2023-08-12T09:41:23;7.72;;;6.20;;
71562;SDS011;59391;52.504;13.438;2023-08-12T09:43:55;9.18;;;6.80;;
71562;SDS011;59391;52.504;13.438;2023-08-12T09:46:24;7.53;;;5.77;;
71562;SDS011;59391;52.504;13.438;2023-08-12T09:48:51;9.32;;;6.70;;
71562;SDS011;59391;52.504;13.438;2023-08-12T09:51:17;9.43;;;6.90;;
71562;SDS011;59391;52.504;13.438;2023-08-12T09:53:44;9.80;;;6.78;;
71562;SDS011;59391;52.504;13.438;2023-08-12T09:56:13;10.20;;;6.80;;
71562;SDS011;59391;52.504;13.438;2023-08-12T09:58:47;9.20;;;6.17;;
71562;SDS011;59391;52.504;13.438;2023-08-12T10:01:20;8.82;;;6.30;;
71562;SDS011;59391;52.504;13.438;2023-08-12T10:03:48;7.88;;;6.28;;
71562;SDS011;59391;52.504;13.438;2023-08-12T10:06:18;8.98;;;6.28;;
71562;SDS011;59391;52.504;13.438;2023-08-12T10:08:45;9.60;;;6.40;;
71562;SDS011;59391;52.504;13.438;2023-08-12T10:11:12;7.63;;;6.30;;
71562;SDS011;59391;52.504;13.438;2023-08-12T10:13:42;8.43;;;6.60;;
71562;SDS011;59391;52.504;13.438;2023-08-12T10:16:08;10.57;;;7.03;;
71562;SDS011;59391;52.504;13.438;2023-08-12T10:18:39;8.63;;;6.68;;
71562;SDS011;59391;52.504;13.438;2023-08-12T10:21:06;9.07;;;6.43;;
71562;SDS011;59391;52.504;13.438;2023-08-12T10:23:38;8.93;;;6.80;;
71562;SDS011;59391;52.504;13.438;2023-08-12T10:26:06;11.13;;;6.80;;
71562;SDS011;59391;52.504;13.438;2023-08-12T10:28:35;9.20;;;7.05;;
71562;SDS011;59391;52.504;13.438;2023-08-12T10:31:03;8.75;;;6.30;;
71562;SDS011;59391;52.504;13.438;2023-08-12T10:33:35;7.93;;;6.57;;
71562;SDS011;59391;52.504;13.438;2023-08-12T10:36:03;9.00;;;7.00;;
71562;SDS011;59391;52.504;13.438;2023-08-12T10:38:30;11.30;;;7.10;;
71562;SDS011;59391;52.504;13.438;2023-08-12T10:43:58;8.07;;;6.68;;
71562;SDS011;59391;52.504;13.438;2023-08-12T10:46:35;8.63;;;6.95;;
71562;SDS011;59391;52.504;13.438;2023-08-12T10:49:09;8.43;;;6.33;;
71562;SDS011;59391;52.504;13.438;2023-08-12T10:51:46;10.07;;;7.15;;
71562;SDS011;59391;52.504;13.438;2023-08-12T10:54:21;9.38;;;7.40;;
71562;SDS011;59391;52.504;13.438;2023-08-12T11:02:43;8.30;;;7.37;;
71562;SDS011;59391;52.504;13.438;2023-08-12T11:10:31;10.90;;;7.15;;
71562;SDS011;59391;52.504;13.438;2023-08-12T11:12:59;9.10;;;7.20;;
71562;SDS011;59391;52.504;13.438;2023-08-12T11:15:33;9.53;;;7.53;;
71562;SDS011;59391;52.504;13.438;2023-08-12T11:18:13;9.35;;;7.60;;
71562;SDS011;59391;52.504;13.438;2023-08-12T11:20:41;8.70;;;7.45;;
71562;SDS011;59391;52.504;13.438;2023-08-12T11:23:08;9.02;;;7.63;;
71562;SDS011;59391;52.504;13.438;2023-08-12T11:25:35;8.32;;;7.30;;
71562;SDS011;59391;52.504;13.438;2023-08-12T11:28:04;9.57;;;7.23;;
71562;SDS011;59391;52.504;13.438;2023-08-12T11:30:30;7.65;;;6.72;;
71562;SDS011;59391;52.504;13.438;2023-08-12T11:32:56;8.98;;;6.78;;
71562;SDS011;59391;52.504;13.438;2023-08-12T11:35:23;9.75;;;6.18;;
71562;SDS011;59391;52.504;13.438;2023-08-12T11:37:51;7.15;;;6.20;;
71562;SDS011;59391;52.504;13.438;2023-08-12T11:40:20;8.60;;;6.60;;
71562;SDS011;59391;52.504;13.438;2023-08-12T11:42:47;9.55;;;6.32;;
71562;SDS011;59391;52.504;13.438;2023-08-12T11:45:16;8.73;;;6.22;;
71562;SDS011;59391;52.504;13.438;2023-08-12T11:47:44;7.28;;;6.03;;
71562;SDS011;59391;52.504;13.438;2023-08-12T11:50:17;8.50;;;6.30;;
71562;SDS011;59391;52.504;13.438;2023-08-12T11:52:45;7.27;;;5.70;;
71562;SDS011;59391;52.504;13.438;2023-08-12T11:55:12;7.78;;;5.72;;
71562;SDS011;59391;52.504;13.438;2023-08-12T11:57:41;9.15;;;6.07;;
71562;SDS011;59391;52.504;13.438;2023-08-12T12:00:08;7.70;;;5.82;;
71562;SDS011;59391;52.504;13.438;2023-08-12T12:02:48;9.27;;;5.75;;
71562;SDS011;59391;52.504;13.438;2023-08-12T12:05:22;8.10;;;5.80;;
71562;SDS011;59391;52.504;13.438;2023-08-12T12:07:51;7.13;;;5.82;;
71562;SDS011;59391;52.504;13.438;2023-08-12T12:10:18;7.90;;;6.30;;
71562;SDS011;59391;52.504;13.438;2023-08-12T12:12:45;8.75;;;6.00;;
71562;SDS011;59391;52.504;13.438;2023-08-12T12:15:12;8.27;;;5.90;;
71562;SDS011;59391;52.504;13.438;2023-08-12T12:17:40;7.80;;;6.35;;
71562;SDS011;59391;52.504;13.438;2023-08-12T12:20:10;8.30;;;6.40;;
71562;SDS011;59391;52.504;13.438;2023-08-12T12:22:36;8.10;;;6.28;;
71562;SDS011;59391;52.504;13.438;2023-08-12T12:25:12;11.57;;;6.30;;
71562;SDS011;59391;52.504;13.438;2023-08-12T12:27:41;7.57;;;6.03;;
71562;SDS011;59391;52.504;13.438;2023-08-12T12:30:08;9.10;;;6.20;;
71562;SDS011;59391;52.504;13.438;2023-08-12T12:32:36;8.38;;;6.47;;
71562;SDS011;59391;52.504;13.438;2023-08-12T12:35:02;8.68;;;6.50;;
71562;SDS011;59391;52.504;13.438;2023-08-12T12:37:29;7.57;;;6.57;;
71562;SDS011;59391;52.504;13.438;2023-08-12T12:39:55;8.25;;;6.43;;
71562;SDS011;59391;52.504;13.438;2023-08-12T12:42:21;8.07;;;5.90;;
71562;SDS011;59391;52.504;13.438;2023-08-12T12:44:47;6.73;;;5.60;;
71562;SDS011;59391;52.504;13.438;2023-08-12T12:47:13;7.88;;;6.55;;
71562;SDS011;59391;52.504;13.438;2023-08-12T12:49:39;9.07;;;6.37;;
71562;SDS011;59391;52.504;13.438;2023-08-12T12:52:06;7.63;;;5.97;;
71562;SDS011;59391;52.504;13.438;2023-08-12T12:54:32;7.28;;;6.05;;
71562;SDS011;59391;52.504;13.438;2023-08-12T12:56:58;8.97;;;6.73;;
71562;SDS011;59391;52.504;13.438;2023-08-12T12:59:24;9.18;;;6.60;;
71562;SDS011;59391;52.504;13.438;2023-08-12T13:01:50;7.53;;;6.20;;
71562;SDS011;59391;52.504;13.438;2023-08-12T13:04:15;10.20;;;8.37;;
71562;SDS011;59391;52.504;13.438;2023-08-12T13:06:41;10.15;;;8.07;;
71562;SDS011;59391;52.504;13.438;2023-08-12T13:09:07;8.03;;;6.63;;
71562;SDS011;59391;52.504;13.438;2023-08-12T13:11:33;8.13;;;5.68;;
71562;SDS011;59391;52.504;13.438;2023-08-12T13:13:59;8.13;;;6.33;;
71562;SDS011;59391;52.504;13.438;2023-08-12T13:16:26;9.63;;;6.38;;
71562;SDS011;59391;52.504;13.438;2023-08-12T13:18:52;8.13;;;6.47;;
71562;SDS011;59391;52.504;13.438;2023-08-12T13:21:17;10.33;;;6.20;;
71562;SDS011;59391;52.504;13.438;2023-08-12T13:23:43;8.67;;;6.60;;
71562;SDS011;59391;52.504;13.438;2023-08-12T13:26:09;8.10;;;6.38;;
71562;SDS011;59391;52.504;13.438;2023-08-12T13:28:34;8.13;;;6.30;;
71562;SDS011;59391;52.504;13.438;2023-08-12T13:31:00;7.83;;;6.40;;
71562;SDS011;59391;52.504;13.438;2023-08-12T13:33:26;7.63;;;6.43;;
71562;SDS011;59391;52.504;13.438;2023-08-12T13:35:54;8.13;;;6.03;;
71562;SDS011;59391;52.504;13.438;2023-08-12T13:38:20;7.05;;;5.88;;
71562;SDS011;59391;52.504;13.438;2023-08-12T13:40:46;8.10;;;6.20;;
71562;SDS011;59391;52.504;13.438;2023-08-12T13:43:12;7.90;;;6.53;;
71562;SDS011;59391;52.504;13.438;2023-08-12T13:45:37;8.23;;;5.93;;
71562;SDS011;59391;52.504;13.438;2023-08-12T13:48:03;7.45;;;5.53;;
71562;SDS011;59391;52.504;13.438;2023-08-12T13:50:29;7.93;;;5.70;;
71562;SDS011;59391;52.504;13.438;2023-08-12T13:52:57;6.80;;;5.60;;
71562;SDS011;59391;52.504;13.438;2023-08-12T13:55:24;8.55;;;5.85;;
71562;SDS011;59391;52.504;13.438;2023-08-12T13:57:50;7.00;;;5.20;;
71562;SDS011;59391;52.504;13.438;2023-08-12T14:00:16;7.50;;;5.10;;
71562;SDS011;59391;52.504;13.438;2023-08-12T14:02:42;7.07;;;5.30;;
71562;SDS011;59391;52.504;13.438;2023-08-12T14:05:08;5.93;;;4.97;;
71562;SDS011;59391;52.504;13.438;2023-08-12T14:07:36;6.40;;;5.07;;
71562;SDS011;59391;52.504;13.438;2023-08-12T14:10:02;7.72;;;5.03;;
71562;SDS011;59391;52.504;13.438;2023-08-12T14:12:29;6.40;;;5.00;;
71562;SDS011;59391;52.504;13.438;2023-08-12T14:14:55;7.95;;;5.10;;
71562;SDS011;59391;52.504;13.438;2023-08-12T14:17:20;6.57;;;5.03;;
71562;SDS011;59391;52.504;13.438;2023-08-12T14:19:48;7.25;;;5.32;;
71562;SDS011;59391;52.504;13.438;2023-08-12T14:22:15;6.22;;;5.05;;
71562;SDS011;59391;52.504;13.438;2023-08-12T14:24:41;6.43;;;5.07;;
71562;SDS011;59391;52.504;13.438;2023-08-12T14:27:09;6.37;;;5.00;;
71562;SDS011;59391;52.504;13.438;2023-08-12T14:29:35;6.05;;;4.75;;
71562;SDS011;59391;52.504;13.438;2023-08-12T14:32:01;6.70;;;4.90;;
71562;SDS011;59391;52.504;13.438;2023-08-12T14:34:26;6.37;;;4.40;;
71562;SDS011;59391;52.504;13.438;2023-08-12T14:36:52;5.67;;;4.40;;
71562;SDS011;59391;52.504;13.438;2023-08-12T14:39:17;5.70;;;4.50;;
71562;SDS011;59391;52.504;13.438;2023-08-12T14:41:43;5.50;;;4.23;;
71562;SDS011;59391;52.504;13.438;2023-08-12T14:44:09;6.35;;;4.63;;
71562;SDS011;59391;52.504;13.438;2023-08-12T14:46:34;6.20;;;4.60;;